Time;durP1;ratioP1;P1;durP2;ratioP2;P2;SDS_P1;SDS_P2;PMS_P1;PMS_P2;Temp;Humidity;BMP_temperature;BMP_pressure;BME280_temperature;BME280_humidity;BME280_pressure;Samples;Min_cycle;Max_cycle;Signal;HPM_P1;HPM_P2
2021/01/20 00:00:14;;;;;;;5.85;5.30;;;;;;;4.44;76.87;99988.16;687779;28;46132;-58
2021/01/20 00:00:35;;;;;;;6.80;5.10;;;;;;;4.45;76.97;99987.16;686711;28;69499;-59
2021/01/20 00:00:58;;;;;;;6.72;5.30;;;;;;;4.44;77.01;99990.00;688842;28;13772;-59
2021/01/20 00:01:19;;;;;;;6.15;5.32;;;;;;;4.42;77.02;99989.28;686992;28;70397;-58
2021/01/20 00:01:40;;;;;;;5.75;5.20;;;;;;;4.41;77.09;99987.63;687560;28;23700;-58
2021/01/20 00:02:02;;;;;;;5.50;5.00;;;;;;;4.41;76.97;99990.31;687694;28;45349;-55
2021/01/20 00:02:23;;;;;;;6.05;4.93;;;;;;;4.41;77.07;99991.13;688500;28;23738;-58
2021/01/20 00:02:45;;;;;;;5.82;5.28;;;;;;;4.40;77.05;99986.78;688449;28;21594;-57
2021/01/20 00:03:06;;;;;;;5.82;5.28;;;;;;;4.38;77.19;99986.09;687992;28;44403;-57
2021/01/20 00:03:28;;;;;;;5.60;5.10;;;;;;;4.37;77.37;99983.56;688737;28;21582;-60
2021/01/20 00:03:49;;;;;;;5.40;4.90;;;;;;;4.37;77.19;99991.59;687976;28;45557;-56
2021/01/20 00:04:10;;;;;;;5.75;5.15;;;;;;;4.40;77.06;99988.59;688282;28;23516;-53
2021/01/20 00:04:32;;;;;;;5.55;5.05;;;;;;;4.42;76.94;99981.25;687611;28;22494;-58
2021/01/20 00:04:54;;;;;;;5.68;5.15;;;;;;;4.43;77.13;99980.28;688081;28;31372;-61
2021/01/20 00:05:15;;;;;;;6.05;5.45;;;;;;;4.40;77.07;99981.41;687685;28;47213;-58
2021/01/20 00:05:36;;;;;;;6.10;5.50;;;;;;;4.40;77.06;99985.94;688751;28;22466;-57
2021/01/20 00:05:58;;;;;;;5.60;5.10;;;;;;;4.41;77.17;99982.28;687852;28;46351;-57
2021/01/20 00:06:19;;;;;;;5.40;4.90;;;;;;;4.39;77.15;99985.09;688332;28;24131;-60
2021/01/20 00:06:41;;;;;;;5.60;5.10;;;;;;;4.40;77.11;99984.09;687610;28;44748;-57
2021/01/20 00:07:02;;;;;;;5.70;5.10;;;;;;;4.40;77.06;99989.44;688416;28;22373;-59
2021/01/20 00:07:23;;;;;;;5.85;5.22;;;;;;;4.38;77.12;99979.91;688225;28;22484;-59
2021/01/20 00:07:45;;;;;;;5.78;4.97;;;;;;;4.37;77.20;99983.56;688292;28;23543;-58
2021/01/20 00:08:06;;;;;;;5.93;4.93;;;;;;;4.34;77.35;99984.72;688710;28;22418;-56
2021/01/20 00:08:27;;;;;;;5.80;5.20;;;;;;;4.36;77.38;99990.75;689309;28;7210;-59
2021/01/20 00:08:49;;;;;;;5.53;5.03;;;;;;;4.36;77.27;99997.91;688510;28;36222;-56
2021/01/20 00:09:10;;;;;;;6.40;5.80;;;;;;;4.36;77.41;99989.91;688666;28;7666;-53
2021/01/20 00:09:32;;;;;;;6.50;5.68;;;;;;;4.35;77.37;99996.25;688602;28;23560;-57
2021/01/20 00:09:53;;;;;;;6.32;5.30;;;;;;;4.35;77.37;99990.91;687782;28;43204;-57
2021/01/20 00:10:15;;;;;;;6.20;5.40;;;;;;;4.36;77.38;99982.75;688326;28;23435;-59
2021/01/20 00:10:37;;;;;;;5.43;4.90;;;;;;;4.35;77.45;99989.06;687098;28;69528;-59
2021/01/20 00:10:59;;;;;;;5.22;4.72;;;;;;;4.36;77.22;100005.94;688687;28;23488;-57
2021/01/20 00:11:20;;;;;;;5.72;4.78;;;;;;;4.36;77.29;99998.78;683280;28;45396;-60
2021/01/20 00:11:41;;;;;;;5.97;4.80;;;;;;;4.40;77.18;99994.78;684215;28;22139;-55
2021/01/20 00:12:03;;;;;;;6.78;5.20;;;;;;;4.40;77.35;99981.41;684724;28;10248;-60
2021/01/20 00:12:25;;;;;;;5.68;5.18;;;;;;;4.38;77.24;99985.25;683853;28;40663;-57
2021/01/20 00:12:46;;;;;;;5.82;5.25;;;;;;;4.35;77.42;100002.44;683722;28;47549;-58
2021/01/20 00:13:07;;;;;;;5.35;4.85;;;;;;;4.41;77.09;99990.31;684907;28;22396;-55
2021/01/20 00:13:28;;;;;;;5.35;4.85;;;;;;;4.42;77.03;99994.63;687584;28;22422;-53
2021/01/20 00:13:50;;;;;;;5.85;5.25;;;;;;;4.43;77.20;99996.31;687496;28;44972;-56
2021/01/20 00:14:13;;;;;;;5.75;4.97;;;;;;;4.44;77.19;99992.66;687878;28;44979;-54
2021/01/20 00:14:34;;;;;;;5.45;4.95;;;;;;;4.42;77.07;99990.16;687495;28;45228;-58
2021/01/20 00:14:55;;;;;;;5.60;4.93;;;;;;;4.44;77.17;99987.31;688308;28;22479;-57
2021/01/20 00:15:19;;;;;;;6.03;5.13;;;;;;;4.38;77.14;99994.13;687420;28;40132;-58
2021/01/20 00:15:41;;;;;;;5.30;4.80;;;;;;;4.41;77.15;99992.97;685809;28;91880;-59
2021/01/20 00:16:03;;;;;;;5.50;5.00;;;;;;;4.41;77.23;99987.63;688349;28;23507;-57
2021/01/20 00:16:24;;;;;;;5.40;4.90;;;;;;;4.40;77.10;99988.59;687143;28;69971;-58
2021/01/20 00:16:46;;;;;;;5.53;5.03;;;;;;;4.38;76.97;99991.44;688828;28;22401;-55
2021/01/20 00:17:08;;;;;;;5.55;5.05;;;;;;;4.39;77.19;99994.94;688674;28;22400;-58
2021/01/20 00:17:29;;;;;;;5.72;5.22;;;;;;;4.38;77.36;99985.25;687435;28;46239;-58
2021/01/20 00:17:50;;;;;;;6.00;5.13;;;;;;;4.36;77.18;99995.25;687484;28;12017;-56
2021/01/20 00:18:12;;;;;;;5.78;5.22;;;;;;;4.35;77.22;99988.25;687706;28;44172;-56
2021/01/20 00:18:33;;;;;;;6.03;5.43;;;;;;;4.35;77.34;99993.59;688126;28;22268;-58
2021/01/20 00:18:55;;;;;;;5.90;5.25;;;;;;;4.35;77.35;99997.09;688991;28;16572;-59
2021/01/20 00:19:16;;;;;;;5.82;5.03;;;;;;;4.38;77.16;99983.41;688722;28;22396;-60
2021/01/20 00:19:37;;;;;;;5.55;5.00;;;;;;;4.41;77.37;99985.78;688904;28;20473;-58
2021/01/20 00:19:59;;;;;;;6.05;5.03;;;;;;;4.42;77.17;99998.16;687470;28;45869;-59
2021/01/20 00:20:20;;;;;;;6.63;4.90;;;;;;;4.44;77.08;99990.00;688989;28;3417;-57
2021/01/20 00:20:41;;;;;;;5.18;4.68;;;;;;;4.42;77.13;99995.50;687711;28;38407;-57
2021/01/20 00:21:03;;;;;;;5.50;5.00;;;;;;;4.42;77.25;99995.50;689704;28;903;-55
2021/01/20 00:21:24;;;;;;;5.78;5.18;;;;;;;4.45;77.04;99987.16;687915;28;46321;-59
2021/01/20 00:21:46;;;;;;;5.30;4.80;;;;;;;4.47;77.00;99978.97;688694;28;22431;-57
2021/01/20 00:22:10;;;;;;;5.97;4.93;;;;;;;4.45;76.83;99988.97;688003;28;45305;-59
2021/01/20 00:22:31;;;;;;;5.25;4.75;;;;;;;4.47;76.94;99984.34;687175;28;69337;-54
2021/01/20 00:22:54;;;;;;;5.82;5.13;;;;;;;4.45;77.15;99986.31;688710;28;21539;-58
2021/01/20 00:23:16;;;;;;;5.20;4.70;;;;;;;4.46;76.93;99982.66;689114;28;15043;-57
2021/01/20 00:23:39;;;;;;;5.35;4.85;;;;;;;4.42;77.21;99973.25;689185;28;954;-59
2021/01/20 00:24:00;;;;;;;6.18;5.13;;;;;;;4.40;77.16;99984.09;688596;28;20205;-58
2021/01/20 00:24:21;;;;;;;6.18;5.35;;;;;;;4.39;77.22;99987.78;687824;28;44380;-60
2021/01/20 00:24:42;;;;;;;6.47;4.93;;;;;;;4.40;77.25;99993.97;687965;28;22571;-58
2021/01/20 00:25:05;;;;;;;5.15;4.65;;;;;;;4.42;77.13;99978.59;689320;28;2502;-62
2021/01/20 00:25:27;;;;;;;5.38;4.75;;;;;;;4.43;77.32;99988.31;687054;28;58981;-58
2021/01/20 00:25:48;;;;;;;5.10;4.60;;;;;;;4.44;77.14;99974.78;688491;28;33240;-59
2021/01/20 00:26:11;;;;;;;5.13;4.72;;;;;;;4.44;77.05;99980.13;688876;28;938;-54
2021/01/20 00:26:32;;;;;;;5.63;4.85;;;;;;;4.45;76.92;99980.94;689024;28;1069;-57
2021/01/20 00:26:54;;;;;;;5.70;5.13;;;;;;;4.44;76.91;99980.13;687686;28;45184;-55
2021/01/20 00:27:15;;;;;;;5.55;4.82;;;;;;;4.43;77.06;99982.94;687599;28;46583;-59
2021/01/20 00:27:36;;;;;;;5.35;4.65;;;;;;;4.41;77.01;99974.25;688552;28;16706;-57
2021/01/20 00:27:58;;;;;;;6.13;5.07;;;;;;;4.40;77.17;99981.41;688696;28;23421;-55
2021/01/20 00:28:19;;;;;;;6.18;5.18;;;;;;;4.42;77.19;99976.78;688574;28;23352;-56
2021/01/20 00:28:41;;;;;;;6.93;5.50;;;;;;;4.42;77.24;99981.25;687916;28;45283;-57
2021/01/20 00:29:02;;;;;;;5.40;4.90;;;;;;;4.42;77.11;99991.97;689096;28;934;-53
2021/01/20 00:29:23;;;;;;;5.45;4.72;;;;;;;4.46;76.99;99993.34;687466;28;45373;-58
2021/01/20 00:29:45;;;;;;;5.53;4.97;;;;;;;4.47;77.16;99982.50;688444;28;22546;-60
2021/01/20 00:30:08;;;;;;;5.47;4.93;;;;;;;4.47;76.95;99982.50;688435;28;23541;-57
2021/01/20 00:30:35;;;;;;;5.53;4.97;;;;;;;4.48;76.85;99986.00;686955;28;60787;-54
2021/01/20 00:30:56;;;;;;;5.38;4.85;;;;;;;4.46;77.01;99983.47;688602;28;16860;-59
2021/01/20 00:31:19;;;;;;;5.20;4.70;;;;;;;4.48;76.93;99988.66;688714;28;12181;-59
2021/01/20 00:31:40;;;;;;;5.07;4.68;;;;;;;4.48;77.04;99984.19;687781;28;46528;-57
2021/01/20 00:32:02;;;;;;;4.97;4.55;;;;;;;4.47;76.87;99981.66;687054;28;46299;-59
2021/01/20 00:32:23;;;;;;;5.40;4.90;;;;;;;4.48;76.77;99978.81;687380;28;46328;-55
2021/01/20 00:32:44;;;;;;;5.13;4.63;;;;;;;4.45;76.86;99980.94;688263;28;24750;-58
2021/01/20 00:33:06;;;;;;;5.60;4.93;;;;;;;4.43;77.06;99980.28;688641;28;13200;-56
2021/01/20 00:33:28;;;;;;;4.97;4.57;;;;;;;4.41;77.29;99984.94;688222;28;33272;-59
2021/01/20 00:33:49;;;;;;;4.60;4.20;;;;;;;4.42;77.14;99979.44;688700;28;23348;-57
2021/01/20 00:34:10;;;;;;;5.32;4.80;;;;;;;4.44;77.16;99985.47;687972;28;44408;-53
2021/01/20 00:34:31;;;;;;;5.50;4.82;;;;;;;4.46;77.01;99985.31;688453;28;22449;-54
2021/01/20 00:34:53;;;;;;;5.15;4.65;;;;;;;4.46;77.12;99982.66;688980;28;891;-58
2021/01/20 00:35:15;;;;;;;5.07;4.50;;;;;;;4.44;77.15;99980.13;687236;28;46283;-55
2021/01/20 00:35:36;;;;;;;5.25;4.72;;;;;;;4.44;77.15;99990.00;687534;28;46497;-58
2021/01/20 00:35:57;;;;;;;5.40;4.50;;;;;;;4.42;77.08;99987.47;688877;28;20783;-58
2021/01/20 00:36:19;;;;;;;5.47;4.93;;;;;;;4.42;77.23;99983.94;688623;28;24414;-59
2021/01/20 00:36:40;;;;;;;5.20;4.70;;;;;;;4.42;77.21;99970.56;687737;28;45230;-57
2021/01/20 00:37:02;;;;;;;4.95;4.45;;;;;;;4.42;77.22;99984.78;688910;28;22419;-58
2021/01/20 00:37:23;;;;;;;4.85;4.30;;;;;;;4.43;77.40;99986.47;687978;28;46453;-60
2021/01/20 00:37:44;;;;;;;5.30;4.60;;;;;;;4.46;77.12;99993.34;688442;28;23480;-59
2021/01/20 00:38:05;;;;;;;5.30;4.65;;;;;;;4.46;77.23;99988.81;688987;28;3541;-56
2021/01/20 00:38:27;;;;;;;5.70;4.50;;;;;;;4.47;76.99;99990.50;689121;28;902;-61
2021/01/20 00:38:49;;;;;;;5.20;4.70;;;;;;;4.48;76.91;99977.97;688155;28;18485;-59
2021/01/20 00:39:10;;;;;;;5.13;4.63;;;;;;;4.50;76.91;99981.34;687958;28;46325;-59
2021/01/20 00:39:31;;;;;;;5.53;5.00;;;;;;;4.50;76.98;99984.03;688939;28;15662;-57
2021/01/20 00:39:53;;;;;;;5.20;4.70;;;;;;;4.48;76.94;99989.53;688392;28;1369;-56
2021/01/20 00:40:15;;;;;;;5.43;4.93;;;;;;;4.48;77.08;99984.19;687486;28;47288;-58
2021/01/20 00:40:36;;;;;;;5.50;5.00;;;;;;;4.49;76.90;99991.19;682893;28;37961;-56
2021/01/20 00:40:58;;;;;;;5.93;5.10;;;;;;;4.51;77.00;99991.03;684424;28;22487;-56
2021/01/20 00:41:20;;;;;;;5.32;4.82;;;;;;;4.50;76.86;99992.88;683703;28;47180;-57
2021/01/20 00:41:41;;;;;;;5.25;4.75;;;;;;;4.49;76.92;99982.34;682992;28;47432;-55
2021/01/20 00:42:02;;;;;;;4.88;4.47;;;;;;;4.47;76.92;99995.84;684294;28;22324;-55
2021/01/20 00:42:24;;;;;;;5.18;4.68;;;;;;;4.46;77.10;99994.16;685178;28;22371;-57
2021/01/20 00:42:45;;;;;;;5.28;4.78;;;;;;;4.47;76.90;100005.72;687489;28;46302;-60
2021/01/20 00:43:07;;;;;;;5.05;4.55;;;;;;;4.50;76.91;99994.72;688503;28;30363;-58
2021/01/20 00:43:28;;;;;;;5.30;4.80;;;;;;;4.48;76.92;99994.00;688584;28;22344;-55
2021/01/20 00:43:49;;;;;;;5.65;4.75;;;;;;;4.49;76.97;99993.03;688839;28;21553;-56
2021/01/20 00:44:11;;;;;;;5.05;4.55;;;;;;;4.49;76.94;99998.38;688993;28;21611;-55
2021/01/20 00:44:33;;;;;;;5.10;4.70;;;;;;;4.49;76.87;100001.06;687493;28;47196;-56
2021/01/20 00:44:54;;;;;;;5.55;4.78;;;;;;;4.49;76.98;99995.69;687697;28;43723;-58
2021/01/20 00:45:15;;;;;;;5.43;4.70;;;;;;;4.47;77.14;100000.38;688300;28;22373;-59
2021/01/20 00:45:37;;;;;;;5.18;4.68;;;;;;;4.43;77.19;99993.66;688090;28;22417;-53
2021/01/20 00:45:58;;;;;;;6.20;4.95;;;;;;;4.43;77.27;99999.81;688059;28;46372;-54
2021/01/20 00:46:20;;;;;;;6.32;4.78;;;;;;;4.44;77.08;99993.50;688535;28;23442;-54
2021/01/20 00:46:42;;;;;;;5.25;4.57;;;;;;;4.43;77.31;99999.81;686465;28;67855;-55
2021/01/20 00:47:03;;;;;;;5.40;4.72;;;;;;;4.43;77.41;99999.00;688231;28;22419;-57
2021/01/20 00:47:25;;;;;;;5.40;4.90;;;;;;;4.44;77.25;100011.38;688445;28;21633;-53
2021/01/20 00:47:46;;;;;;;5.20;4.70;;;;;;;4.46;77.19;99996.84;687407;28;44057;-57
2021/01/20 00:48:09;;;;;;;4.90;4.40;;;;;;;4.44;77.15;99998.84;687448;28;23449;-58
2021/01/20 00:48:31;;;;;;;5.53;4.72;;;;;;;4.45;77.11;100002.34;686707;28;69210;-54
2021/01/20 00:48:52;;;;;;;5.80;4.90;;;;;;;4.44;77.22;99998.84;687892;28;46752;-55
2021/01/20 00:49:13;;;;;;;5.30;4.80;;;;;;;4.43;77.10;99996.31;686996;28;22569;-58
2021/01/20 00:49:34;;;;;;;5.30;4.80;;;;;;;4.41;77.28;100001.00;683577;28;23462;-54
2021/01/20 00:49:57;;;;;;;5.18;4.68;;;;;;;4.39;77.37;100001.16;683514;28;43549;-54
2021/01/20 00:50:18;;;;;;;5.20;4.70;;;;;;;4.39;77.40;100005.63;681271;28;44390;-56
2021/01/20 00:50:40;;;;;;;5.30;4.80;;;;;;;4.40;77.49;99999.31;679704;29;23567;-55
2021/01/20 00:51:01;;;;;;;5.10;4.60;;;;;;;4.40;77.40;100004.66;679567;29;45443;-56
2021/01/20 00:51:24;;;;;;;4.88;4.47;;;;;;;4.38;77.44;100003.97;677774;28;69612;-56
2021/01/20 00:51:46;;;;;;;5.05;4.55;;;;;;;4.36;77.50;100000.59;676866;29;44394;-57
2021/01/20 00:52:07;;;;;;;4.80;4.40;;;;;;;4.38;77.31;100002.13;677471;29;12933;-60
2021/01/20 00:52:28;;;;;;;4.90;4.50;;;;;;;4.37;77.44;100000.44;676108;29;22472;-55
2021/01/20 00:52:50;;;;;;;5.30;4.80;;;;;;;4.39;77.36;100002.97;677822;29;44828;-55
2021/01/20 00:53:12;;;;;;;5.38;4.78;;;;;;;4.37;77.44;100004.97;680563;29;46526;-52
2021/01/20 00:53:33;;;;;;;5.15;4.75;;;;;;;4.33;77.40;100001.78;682029;28;22233;-59
2021/01/20 00:53:54;;;;;;;5.10;4.60;;;;;;;4.34;77.36;100008.78;684829;28;46177;-54
2021/01/20 00:54:17;;;;;;;4.97;4.57;;;;;;;4.33;77.51;100010.63;682810;28;22380;-53
2021/01/20 00:54:38;;;;;;;5.28;4.78;;;;;;;4.33;77.61;100012.47;678535;29;46389;-60
2021/01/20 00:55:00;;;;;;;4.90;4.50;;;;;;;4.39;77.51;100024.34;678425;29;47283;-56
2021/01/20 00:55:21;;;;;;;5.03;4.60;;;;;;;4.37;77.20;100005.78;680991;29;22213;-60
2021/01/20 00:55:48;;;;;;;4.60;4.20;;;;;;;4.42;77.42;100011.53;677729;29;137757;-55
2021/01/20 00:56:10;;;;;;;5.05;4.65;;;;;;;4.44;77.21;100008.72;680019;29;69450;-57
2021/01/20 00:56:33;;;;;;;4.90;4.43;;;;;;;4.44;77.24;100016.72;681007;28;91067;-53
2021/01/20 00:56:55;;;;;;;4.60;4.20;;;;;;;4.45;77.26;100013.91;679465;29;46296;-53
2021/01/20 00:57:17;;;;;;;4.95;4.47;;;;;;;4.44;77.20;100012.22;678719;29;46338;-54
2021/01/20 00:57:39;;;;;;;4.75;4.30;;;;;;;4.43;77.28;100015.03;680551;29;4094;-57
2021/01/20 00:58:01;;;;;;;4.53;4.13;;;;;;;4.40;77.35;100013.50;679555;29;46334;-53
2021/01/20 00:58:22;;;;;;;5.18;4.57;;;;;;;4.39;77.41;100011.84;680118;29;21959;-57
2021/01/20 00:58:44;;;;;;;4.88;4.45;;;;;;;4.38;77.33;100012.81;679630;28;41248;-56
2021/01/20 00:59:05;;;;;;;4.80;4.40;;;;;;;4.38;77.51;100012.00;679325;29;23596;-52
2021/01/20 00:59:27;;;;;;;4.90;4.40;;;;;;;4.38;77.57;100004.81;679765;29;34950;-54
2021/01/20 00:59:48;;;;;;;4.40;4.00;;;;;;;4.37;77.46;100011.13;680738;29;22397;-58
2021/01/20 01:00:11;;;;;;;4.53;4.13;;;;;;;4.37;77.44;100018.34;678018;29;46448;-58
2021/01/20 01:00:38;;;;;;;4.63;4.32;;;;;;;4.36;77.53;100014.81;674094;29;135611;-57
2021/01/20 01:01:00;;;;;;;4.35;4.05;;;;;;;4.36;77.51;100020.16;681193;28;23066;-58
2021/01/20 01:01:23;;;;;;;4.82;4.32;;;;;;;4.39;77.60;100017.19;678750;29;9398;-58
2021/01/20 01:01:44;;;;;;;6.38;4.97;;;;;;;4.41;77.45;100014.38;680462;29;55183;-54
2021/01/20 01:02:16;;;;;;;5.57;4.82;;;;;;;4.42;77.32;100016.88;673961;29;137706;-56
2021/01/20 01:02:41;;;;;;;5.47;4.72;;;;;;;4.40;77.39;100018.84;675874;29;111635;-59
2021/01/20 01:03:03;;;;;;;5.07;4.50;;;;;;;4.36;77.42;100020.16;679217;29;22477;-55
2021/01/20 01:03:24;;;;;;;4.63;4.22;;;;;;;4.37;77.37;100023.69;681670;28;46437;-59
2021/01/20 01:03:45;;;;;;;4.68;4.25;;;;;;;4.38;77.52;100018.19;682712;28;23522;-57
2021/01/20 01:04:06;;;;;;;4.70;4.15;;;;;;;4.39;77.39;100016.34;683047;28;31004;-58
2021/01/20 01:04:28;;;;;;;4.68;4.10;;;;;;;4.39;77.48;100014.53;686881;28;11772;-60
2021/01/20 01:04:49;;;;;;;5.00;4.50;;;;;;;4.40;77.52;100015.34;687855;28;46462;-59
2021/01/20 01:05:12;;;;;;;5.00;4.50;;;;;;;4.40;77.33;100015.34;687571;28;23420;-55
2021/01/20 01:05:34;;;;;;;5.30;4.55;;;;;;;4.40;77.38;100020.69;683053;28;47688;-56
2021/01/20 01:05:58;;;;;;;5.57;4.50;;;;;;;4.37;77.45;100018.34;680830;28;114978;-59
2021/01/20 01:06:20;;;;;;;5.55;4.50;;;;;;;4.41;77.28;100022.38;683599;28;46584;-56
2021/01/20 01:06:41;;;;;;;5.17;4.67;;;;;;;4.42;77.24;100013.34;684304;28;23796;-56
2021/01/20 01:07:02;;;;;;;4.57;4.18;;;;;;;4.40;77.38;100010.81;681088;29;31654;-58
2021/01/20 01:07:24;;;;;;;4.72;4.32;;;;;;;4.40;77.35;100004.66;682359;28;23637;-61
2021/01/20 01:07:45;;;;;;;4.95;4.55;;;;;;;4.36;77.37;100006.81;681442;28;22355;-53
2021/01/20 01:08:07;;;;;;;4.90;4.40;;;;;;;4.35;77.73;100006.97;678566;29;59402;-53
2021/01/20 01:08:36;;;;;;;5.18;4.78;;;;;;;4.38;77.59;100012.00;675659;29;60417;-56
2021/01/20 01:08:58;;;;;;;4.75;4.35;;;;;;;4.35;77.50;100002.44;677185;29;45150;-59
2021/01/20 01:09:20;;;;;;;4.63;4.22;;;;;;;4.32;77.47;100000.91;678569;29;23423;-57
2021/01/20 01:09:41;;;;;;;4.85;4.40;;;;;;;4.34;77.87;100003.44;681837;28;36723;-56
2021/01/20 01:10:32;;;;;;;4.38;3.97;;;;;;;4.33;77.75;100012.47;674652;29;158894;-55
2021/01/20 01:11:04;;;;;;;5.15;4.60;;;;;;;4.38;77.35;100004.81;686552;28;137199;-59
2021/01/20 01:11:40;;;;;;;4.55;4.10;;;;;;;4.41;77.63;100004.50;681662;28;135388;-60
2021/01/20 01:12:03;;;;;;;4.78;4.38;;;;;;;4.42;77.29;100008.88;681592;28;67608;-55
2021/01/20 01:12:29;;;;;;;4.68;4.28;;;;;;;4.40;77.50;100005.47;676099;29;136459;-58
2021/01/20 01:12:50;;;;;;;4.80;4.40;;;;;;;4.38;77.26;100012.00;676996;29;22408;-58
2021/01/20 01:13:13;;;;;;;4.68;4.20;;;;;;;4.40;77.44;100010.81;675676;29;69199;-57
2021/01/20 01:13:41;;;;;;;4.75;4.30;;;;;;;4.41;77.25;100009.03;672461;29;160896;-55
2021/01/20 01:14:22;;;;;;;4.80;4.40;;;;;;;4.41;77.22;100003.66;678783;28;137680;-53
2021/01/20 01:15:09;;;;;;;4.60;4.20;;;;;;;4.45;77.05;100002.34;679170;28;137509;-58
2021/01/20 01:15:31;;;;;;;4.50;4.10;;;;;;;4.43;77.24;100015.03;684325;28;70201;-55
2021/01/20 01:15:53;;;;;;;4.22;3.83;;;;;;;4.40;77.37;100000.13;684962;28;21517;-58
2021/01/20 01:16:15;;;;;;;4.72;4.03;;;;;;;4.39;77.36;100003.81;678709;29;46925;-55
2021/01/20 01:16:37;;;;;;;5.07;4.18;;;;;;;4.36;77.47;100012.16;679603;29;44370;-54
2021/01/20 01:16:59;;;;;;;5.00;4.25;;;;;;;4.36;77.40;100016.63;678545;29;46431;-58
2021/01/20 01:17:35;;;;;;;4.80;4.40;;;;;;;4.37;77.54;100011.13;676852;28;135978;-59
2021/01/20 01:17:57;;;;;;;4.88;4.47;;;;;;;4.36;77.48;100006.81;676298;29;44988;-58
2021/01/20 01:18:20;;;;;;;4.60;4.20;;;;;;;4.35;77.61;100002.44;680608;28;91592;-60
2021/01/20 01:18:41;;;;;;;4.55;4.15;;;;;;;4.33;77.42;100013.28;685648;28;22381;-55
2021/01/20 01:19:04;;;;;;;4.60;4.20;;;;;;;4.33;77.45;100020.47;685669;28;21691;-57
2021/01/20 01:19:25;;;;;;;4.80;4.30;;;;;;;4.35;77.60;100021.16;681662;28;42068;-56
2021/01/20 01:19:46;;;;;;;4.88;4.40;;;;;;;4.32;77.59;100014.28;684529;28;46347;-60
2021/01/20 01:20:08;;;;;;;4.85;4.35;;;;;;;4.35;77.63;100020.31;683930;28;22366;-55
2021/01/20 01:20:30;;;;;;;4.47;4.07;;;;;;;4.35;77.45;100017.66;683998;28;18289;-53
2021/01/20 01:20:53;;;;;;;4.65;4.20;;;;;;;4.36;77.50;100020.16;679921;29;57841;-58
2021/01/20 01:21:14;;;;;;;5.25;4.20;;;;;;;4.36;77.54;100030.88;678385;29;46411;-55
2021/01/20 01:21:35;;;;;;;4.50;4.10;;;;;;;4.39;77.44;100010.97;680513;29;22389;-55
2021/01/20 01:21:57;;;;;;;4.55;4.15;;;;;;;4.36;77.34;100020.16;680761;28;18687;-58
2021/01/20 01:22:20;;;;;;;4.25;3.85;;;;;;;4.37;77.54;100021.00;677872;29;93101;-58
2021/01/20 01:22:44;;;;;;;4.90;4.10;;;;;;;4.40;77.37;100021.53;676995;29;115313;-58
2021/01/20 01:23:08;;;;;;;4.10;3.80;;;;;;;4.42;77.19;100024.03;677922;29;68528;-58
2021/01/20 01:23:29;;;;;;;4.55;4.15;;;;;;;4.44;77.12;100020.22;679127;29;44427;-59
2021/01/20 01:23:51;;;;;;;4.60;4.20;;;;;;;4.41;77.28;100019.72;679192;29;5488;-59
2021/01/20 01:24:12;;;;;;;4.85;4.45;;;;;;;4.39;77.21;100021.69;678192;29;45343;-59
2021/01/20 01:24:34;;;;;;;4.90;4.40;;;;;;;4.40;77.46;100012.69;680324;29;984;-61
2021/01/20 01:24:56;;;;;;;5.10;4.60;;;;;;;4.39;77.39;100019.00;676996;29;34937;-53
2021/01/20 01:25:18;;;;;;;4.70;4.30;;;;;;;4.42;77.32;100021.38;677879;29;22511;-56
2021/01/20 01:25:44;;;;;;;4.70;4.30;;;;;;;4.42;77.29;100008.00;676691;29;125880;-60
2021/01/20 01:26:06;;;;;;;4.63;4.22;;;;;;;4.40;77.35;100015.34;678253;29;45207;-52
2021/01/20 01:26:28;;;;;;;4.57;4.18;;;;;;;4.40;77.48;100015.34;679878;29;22530;-53
2021/01/20 01:26:50;;;;;;;4.30;3.97;;;;;;;4.41;77.37;100014.38;679412;29;1343;-55
2021/01/20 01:27:12;;;;;;;4.75;4.35;;;;;;;4.42;77.19;100010.69;679549;29;44600;-53
2021/01/20 01:27:34;;;;;;;5.07;4.57;;;;;;;4.40;77.31;100008.16;680075;29;1162;-57
2021/01/20 01:28:01;;;;;;;4.90;4.50;;;;;;;4.43;77.21;100015.03;677724;28;128949;-58
2021/01/20 01:28:23;;;;;;;4.45;4.13;;;;;;;4.45;77.20;100021.91;681288;28;69445;-58
2021/01/20 01:29:00;;;;;;;4.63;4.22;;;;;;;4.46;77.19;100020.91;680743;28;138586;-54
2021/01/20 01:29:30;;;;;;;5.28;4.78;;;;;;;4.46;77.22;100012.06;678542;28;138474;-55
2021/01/20 01:29:58;;;;;;;4.60;4.20;;;;;;;4.44;77.10;100022.06;678581;28;137655;-57
2021/01/20 01:30:27;;;;;;;4.72;4.32;;;;;;;4.41;77.21;100028.56;678576;28;137750;-59
2021/01/20 01:30:48;;;;;;;4.45;4.10;;;;;;;4.44;77.10;100028.25;680640;28;21539;-59
2021/01/20 01:31:10;;;;;;;4.50;4.10;;;;;;;4.47;77.19;100022.59;679708;29;45428;-56
2021/01/20 01:31:32;;;;;;;4.70;4.30;;;;;;;4.48;77.15;100012.72;679963;29;21551;-59
2021/01/20 01:31:54;;;;;;;5.05;4.55;;;;;;;4.47;76.96;100011.06;679537;29;46339;-59
2021/01/20 01:32:15;;;;;;;4.88;4.10;;;;;;;4.45;77.13;100013.03;676835;29;45356;-57
2021/01/20 01:32:38;;;;;;;4.63;4.22;;;;;;;4.42;77.16;100006.19;674445;29;69265;-55
2021/01/20 01:33:05;;;;;;;4.72;4.32;;;;;;;4.44;77.24;100009.53;674760;29;138820;-56
2021/01/20 01:33:31;;;;;;;4.97;4.53;;;;;;;4.43;77.14;100017.72;677825;28;138336;-57
2021/01/20 01:33:53;;;;;;;4.82;4.43;;;;;;;4.46;77.16;100018.22;679061;29;46519;-57
2021/01/20 01:34:16;;;;;;;4.80;4.32;;;;;;;4.47;77.15;100011.06;681483;28;48231;-56
2021/01/20 01:34:38;;;;;;;5.20;4.47;;;;;;;4.45;77.19;100008.56;684717;28;23354;-57
2021/01/20 01:35:02;;;;;;;5.00;4.50;;;;;;;4.44;77.25;100009.53;679572;28;92269;-57
2021/01/20 01:35:23;;;;;;;4.93;4.53;;;;;;;4.44;77.03;100006.03;681842;28;41174;-58
2021/01/20 01:35:56;;;;;;;4.72;4.32;;;;;;;4.45;77.12;100002.34;678755;28;137571;-59
2021/01/20 01:36:17;;;;;;;4.88;4.47;;;;;;;4.45;77.00;100011.22;683287;28;45269;-61
2021/01/20 01:36:40;;;;;;;4.60;4.20;;;;;;;4.46;76.92;100001.38;681053;28;69486;-58
2021/01/20 01:37:18;;;;;;;4.82;4.43;;;;;;;4.46;77.00;100006.72;680349;28;135965;-56
2021/01/20 01:37:59;;;;;;;4.93;4.43;;;;;;;4.45;77.21;100008.56;681680;28;122973;-59
2021/01/20 01:38:40;;;;;;;4.65;4.25;;;;;;;4.43;77.26;100002.50;679218;28;135857;-57
2021/01/20 01:39:06;;;;;;;5.10;4.60;;;;;;;4.41;77.28;100006.34;676549;28;138201;-57
2021/01/20 01:39:36;;;;;;;5.00;4.60;;;;;;;4.39;77.23;100005.63;677689;28;160581;-60
2021/01/20 01:39:58;;;;;;;4.90;4.50;;;;;;;4.37;77.50;100013.81;681129;28;66626;-59
2021/01/20 01:40:21;;;;;;;4.90;4.50;;;;;;;4.41;77.36;100017.88;678547;29;67501;-59
2021/01/20 01:41:03;;;;;;;4.88;4.38;;;;;;;4.45;77.20;100013.03;672512;29;138213;-55
2021/01/20 01:41:36;;;;;;;4.80;4.30;;;;;;;4.44;77.34;100003.38;671250;29;137450;-60
2021/01/20 01:41:58;;;;;;;4.95;4.50;;;;;;;4.42;77.22;100011.53;671212;28;84096;-58
2021/01/20 01:42:27;;;;;;;4.95;4.50;;;;;;;4.45;77.22;100013.03;687225;28;43729;-58
2021/01/20 01:42:48;;;;;;;4.93;4.53;;;;;;;4.43;77.16;100015.03;679576;28;160935;-55
2021/01/20 01:43:10;;;;;;;4.75;4.35;;;;;;;4.44;77.34;100011.38;679909;29;46496;-59
2021/01/20 01:43:32;;;;;;;5.10;4.60;;;;;;;4.41;77.36;100014.38;677011;29;23020;-60
2021/01/20 01:44:16;;;;;;;5.25;4.75;;;;;;;4.44;77.37;100006.03;672695;29;160242;-56
2021/01/20 01:44:46;;;;;;;4.93;4.53;;;;;;;4.46;77.17;100009.38;676386;29;138123;-56
2021/01/20 01:45:12;;;;;;;4.43;4.03;;;;;;;4.44;77.16;100003.38;677332;29;92287;-56
2021/01/20 01:45:33;;;;;;;4.75;4.38;;;;;;;4.42;77.21;100016.88;681160;28;69414;-59
2021/01/20 01:45:55;;;;;;;5.30;4.80;;;;;;;4.43;77.36;100029.25;678897;29;46458;-59
2021/01/20 01:46:17;;;;;;;4.90;4.50;;;;;;;4.46;77.19;100020.06;683013;28;8582;-59
2021/01/20 01:46:47;;;;;;;4.72;4.32;;;;;;;4.43;77.33;100007.03;675670;29;137896;-58
2021/01/20 01:47:32;;;;;;;4.90;4.50;;;;;;;4.42;77.34;100013.34;671088;28;136006;-62
2021/01/20 01:47:57;;;;;;;5.30;4.80;;;;;;;4.43;77.34;100015.03;681767;28;99642;-57
2021/01/20 01:48:19;;;;;;;5.18;4.68;;;;;;;4.43;77.37;100010.53;684720;28;44368;-57
2021/01/20 01:48:40;;;;;;;5.00;4.60;;;;;;;4.41;77.45;100017.03;683481;28;41660;-56
2021/01/20 01:49:02;;;;;;;4.95;4.55;;;;;;;4.41;77.20;100004.50;686086;28;1269;-59
2021/01/20 01:49:24;;;;;;;5.22;4.72;;;;;;;4.39;77.41;100010.97;683362;28;1552;-60
2021/01/20 01:49:47;;;;;;;5.35;4.50;;;;;;;4.39;77.42;100009.16;678015;29;69301;-56
2021/01/20 01:50:11;;;;;;;6.05;5.00;;;;;;;4.39;77.43;100009.16;673934;29;81516;-58
2021/01/20 01:50:32;;;;;;;5.10;4.65;;;;;;;4.41;77.27;100003.66;677053;29;24873;-54
2021/01/20 01:50:54;;;;;;;5.00;4.60;;;;;;;4.42;77.32;100013.34;679163;29;17785;-59